Time;durP1;ratioP1;P1;durP2;ratioP2;P2;SDS_P1;SDS_P2;PMS_P1;PMS_P2;Temp;Humidity;BMP_temperature;BMP_pressure;BME280_temperature;BME280_humidity;BME280_pressure;Samples;Min_cycle;Max_cycle;Signal;HPM_P1;HPM_P2
2021/06/11 00:01:20;;;;;;;7.18;4.38;;;18.50;90.00;;;;;;4990158;28;20432;-68
2021/06/11 00:03:45;;;;;;;5.85;3.88;;;18.50;90.10;;;;;;4989986;28;20129;-68
2021/06/11 00:06:11;;;;;;;7.70;4.10;;;18.50;90.20;;;;;;4991574;28;20125;-69
2021/06/11 00:08:36;;;;;;;7.45;4.03;;;18.50;90.30;;;;;;4989987;28;20447;-68
2021/06/11 00:11:03;;;;;;;6.32;4.47;;;18.50;90.60;;;;;;4989902;28;20357;-68
2021/06/11 00:13:28;;;;;;;7.78;4.38;;;18.40;90.80;;;;;;4989492;28;20039;-68
2021/06/11 00:15:54;;;;;;;7.18;4.57;;;18.40;90.70;;;;;;4990217;28;20330;-68
2021/06/11 00:18:19;;;;;;;5.75;4.47;;;18.40;90.80;;;;;;4991294;28;20022;-69
2021/06/11 00:20:45;;;;;;;8.43;4.25;;;18.40;91.00;;;;;;4970588;28;20042;-69
2021/06/11 00:23:11;;;;;;;9.48;4.55;;;18.40;91.10;;;;;;4970256;28;20085;-69
2021/06/11 00:25:36;;;;;;;10.65;4.55;;;18.30;91.40;;;;;;4970479;28;20039;-69
2021/06/11 00:28:02;;;;;;;9.45;4.63;;;18.30;91.50;;;;;;4975304;28;20522;-68
2021/06/11 00:30:29;;;;;;;6.35;4.22;;;18.30;91.60;;;;;;4989897;28;20124;-70
2021/06/11 00:32:56;;;;;;;10.90;4.70;;;18.30;91.80;;;;;;4993779;28;20101;-69
2021/06/11 00:35:22;;;;;;;6.28;4.63;;;18.30;91.80;;;;;;4993778;28;20260;-69
2021/06/11 00:37:48;;;;;;;9.18;4.47;;;18.30;91.90;;;;;;4993897;28;20035;-70
2021/06/11 00:40:14;;;;;;;8.50;5.15;;;18.40;91.90;;;;;;4993661;28;20058;-67
2021/06/11 00:42:40;;;;;;;9.52;5.25;;;18.40;92.00;;;;;;4993433;28;20027;-68
2021/06/11 00:45:08;;;;;;;6.78;5.18;;;18.30;92.20;;;;;;4995015;28;20050;-69
2021/06/11 00:47:34;;;;;;;6.10;4.75;;;18.30;92.30;;;;;;4993370;28;20126;-67
2021/06/11 00:50:00;;;;;;;10.02;5.05;;;18.30;92.40;;;;;;4993291;28;20062;-69
2021/06/11 00:52:25;;;;;;;9.13;5.50;;;18.20;92.70;;;;;;4993587;28;20470;-68
2021/06/11 00:54:51;;;;;;;9.43;4.95;;;18.20;92.60;;;;;;4993345;28;20085;-68
2021/06/11 00:57:17;;;;;;;8.18;5.15;;;18.20;92.80;;;;;;4994855;28;20030;-68
2021/06/11 00:59:43;;;;;;;10.77;5.55;;;18.20;92.90;;;;;;4992383;28;20039;-69
2021/06/11 01:02:11;;;;;;;10.35;5.40;;;18.10;92.90;;;;;;4993740;28;20030;-68
2021/06/11 01:04:36;;;;;;;11.73;5.53;;;18.10;93.20;;;;;;4993457;28;20116;-68
2021/06/11 01:07:04;;;;;;;9.43;5.15;;;18.00;93.30;;;;;;4993201;28;20076;-68
2021/06/11 01:09:33;;;;;;;8.68;5.05;;;18.00;93.60;;;;;;4993248;28;20387;-68
2021/06/11 01:12:01;;;;;;;7.40;5.47;;;17.90;93.70;;;;;;4994562;28;20050;-68
2021/06/11 01:14:27;;;;;;;7.90;5.53;;;17.90;93.80;;;;;;4993142;28;20064;-68
2021/06/11 01:16:53;;;;;;;12.43;5.35;;;17.90;94.10;;;;;;4993008;28;20030;-68
2021/06/11 01:19:24;;;;;;;7.35;5.38;;;17.90;94.20;;;;;;4992987;28;20125;-69
2021/06/11 01:21:58;;;;;;;6.78;4.82;;;17.90;94.40;;;;;;4993110;28;20511;-68
2021/06/11 01:24:30;;;;;;;7.88;5.63;;;17.90;94.40;;;;;;4992528;28;20039;-67
2021/06/11 01:26:57;;;;;;;8.88;5.63;;;17.90;94.50;;;;;;4994165;28;20026;-68
2021/06/11 01:29:26;;;;;;;8.43;5.63;;;17.90;94.60;;;;;;4992748;28;20101;-69
2021/06/11 01:31:56;;;;;;;8.13;5.25;;;17.80;94.80;;;;;;4991284;28;20129;-68
2021/06/11 01:34:26;;;;;;;7.95;5.03;;;17.80;95.10;;;;;;4991314;28;20038;-68
2021/06/11 01:37:09;;;;;;;8.57;5.22;;;17.70;95.20;;;;;;5008280;28;20345;-68
2021/06/11 01:39:36;;;;;;;8.40;5.35;;;17.80;95.30;;;;;;5012047;28;20041;-68
2021/06/11 01:42:03;;;;;;;10.85;5.38;;;17.70;95.40;;;;;;5013450;28;20527;-68
2021/06/11 01:44:30;;;;;;;10.13;5.28;;;17.70;95.60;;;;;;5011856;28;20078;-69
2021/06/11 01:46:59;;;;;;;9.50;6.13;;;17.70;95.80;;;;;;5011920;28;20428;-70
2021/06/11 01:49:26;;;;;;;6.90;5.10;;;17.60;95.80;;;;;;5012195;28;20030;-68
2021/06/11 01:51:55;;;;;;;9.70;5.28;;;17.60;95.80;;;;;;5011940;28;20412;-67
2021/06/11 01:54:22;;;;;;;8.15;5.82;;;17.70;95.90;;;;;;5013336;28;20025;-69
2021/06/11 01:56:48;;;;;;;7.45;5.00;;;17.70;96.00;;;;;;5010995;28;20052;-68
2021/06/11 01:59:15;;;;;;;10.52;4.95;;;17.60;96.10;;;;;;5011505;28;20085;-68
2021/06/11 02:01:41;;;;;;;9.25;5.53;;;17.50;96.20;;;;;;5012076;28;20030;-68
2021/06/11 02:04:08;;;;;;;7.38;5.15;;;17.50;96.40;;;;;;5011644;28;20042;-69
2021/06/11 02:06:34;;;;;;;6.80;4.97;;;17.50;96.60;;;;;;5011223;28;20048;-69
2021/06/11 02:09:02;;;;;;;8.15;5.53;;;17.50;96.70;;;;;;5013043;28;20022;-68
2021/06/11 02:11:28;;;;;;;10.75;5.40;;;17.50;96.70;;;;;;5011390;28;20038;-68
2021/06/11 02:13:55;;;;;;;8.15;5.75;;;17.50;96.90;;;;;;5011250;28;20034;-68
2021/06/11 02:16:25;;;;;;;11.13;5.80;;;17.40;96.90;;;;;;5011566;28;20132;-68
2021/06/11 02:18:52;;;;;;;9.93;6.63;;;17.40;97.00;;;;;;5011741;28;20049;-68
2021/06/11 02:21:18;;;;;;;10.70;6.28;;;17.40;97.10;;;;;;5011778;28;20046;-68
2021/06/11 02:23:44;;;;;;;7.57;5.38;;;17.40;97.20;;;;;;5011199;28;20093;-69
2021/06/11 02:26:12;;;;;;;8.18;5.75;;;17.40;97.20;;;;;;5011361;28;20042;-68
2021/06/11 02:28:39;;;;;;;8.52;5.63;;;17.30;97.20;;;;;;5011398;28;20084;-68
2021/06/11 02:31:04;;;;;;;9.30;5.88;;;17.40;97.40;;;;;;5011158;28;20042;-68
2021/06/11 02:33:30;;;;;;;8.43;5.78;;;17.30;97.40;;;;;;5011231;28;20022;-68
2021/06/11 02:35:56;;;;;;;11.93;5.97;;;17.30;97.50;;;;;;5012589;28;20057;-68
2021/06/11 02:38:22;;;;;;;8.10;5.95;;;17.30;97.70;;;;;;5011136;28;20038;-69
2021/06/11 02:40:49;;;;;;;8.52;6.03;;;17.20;97.60;;;;;;5010892;28;20042;-67
2021/06/11 02:43:17;;;;;;;9.57;6.07;;;17.20;97.70;;;;;;5010943;28;20046;-68
2021/06/11 02:45:58;;;;;;;10.23;6.18;;;17.20;97.80;;;;;;5011065;28;20431;-67
2021/06/11 02:48:31;;;;;;;7.82;5.93;;;17.20;97.90;;;;;;5009991;28;20037;-67
2021/06/11 02:51:02;;;;;;;10.35;5.97;;;17.20;97.90;;;;;;5012268;28;20091;-67
2021/06/11 02:53:29;;;;;;;12.73;6.00;;;17.20;97.90;;;;;;5011227;28;20033;-68
2021/06/11 02:55:59;;;;;;;9.30;5.50;;;17.20;97.90;;;;;;5010281;28;20076;-68
2021/06/11 02:58:33;;;;;;;13.50;6.35;;;17.20;97.90;;;;;;5010706;28;20037;-68
2021/06/11 03:01:02;;;;;;;10.63;5.80;;;17.10;98.00;;;;;;5010540;28;20042;-69
2021/06/11 03:03:30;;;;;;;8.57;5.65;;;17.00;98.40;;;;;;5009782;28;20430;-69
2021/06/11 03:05:59;;;;;;;11.55;6.03;;;17.00;98.30;;;;;;5012413;28;20038;-68
2021/06/11 03:08:30;;;;;;;11.13;5.60;;;17.00;98.30;;;;;;5010457;28;20069;-68
2021/06/11 03:11:02;;;;;;;10.73;5.30;;;17.00;98.30;;;;;;5010838;28;20492;-67
2021/06/11 03:13:28;;;;;;;8.77;6.25;;;17.00;98.40;;;;;;5009011;28;20073;-68
2021/06/11 03:15:56;;;;;;;8.40;5.78;;;17.00;98.40;;;;;;5009293;28;20519;-68
2021/06/11 03:18:41;;;;;;;7.53;5.25;;;17.00;98.50;;;;;;5011800;28;20026;-68
2021/06/11 03:21:16;;;;;;;12.15;5.63;;;17.00;98.50;;;;;;5009398;28;20046;-68
2021/06/11 03:24:00;;;;;;;8.25;5.32;;;17.00;98.60;;;;;;5010409;28;20038;-69
2021/06/11 03:26:30;;;;;;;8.65;5.90;;;17.00;98.70;;;;;;5010259;28;20049;-69
2021/06/11 03:29:00;;;;;;;8.20;5.65;;;17.00;98.60;;;;;;5010026;28;20053;-68
2021/06/11 03:31:36;;;;;;;10.75;5.65;;;16.90;98.70;;;;;;5010117;28;20038;-69
2021/06/11 03:34:05;;;;;;;6.97;4.95;;;17.00;98.80;;;;;;5010342;28;20129;-68
2021/06/11 03:36:41;;;;;;;13.55;5.57;;;17.00;98.90;;;;;;5009639;28;20038;-69
2021/06/11 03:39:11;;;;;;;7.57;5.50;;;16.90;99.00;;;;;;5010237;28;20525;-68
2021/06/11 03:41:38;;;;;;;13.38;5.50;;;16.90;99.00;;;;;;5009810;28;20042;-68
2021/06/11 03:44:08;;;;;;;7.05;4.97;;;16.90;99.00;;;;;;5009726;28;20057;-68
2021/06/11 03:46:34;;;;;;;9.13;4.70;;;16.90;99.10;;;;;;5009914;28;20049;-68
2021/06/11 03:49:01;;;;;;;8.13;5.20;;;16.90;99.20;;;;;;5010067;28;20037;-68
2021/06/11 03:51:28;;;;;;;17.20;6.25;;;17.00;99.10;;;;;;5008806;28;20117;-69
2021/06/11 03:53:56;;;;;;;14.70;5.05;;;17.00;99.00;;;;;;5011124;28;20018;-69
2021/06/11 03:56:24;;;;;;;;;;;17.00;99.20;;;;;;5009866;28;20038;-69
2021/06/11 03:58:51;;;;;;;10.40;5.57;;;17.00;99.10;;;;;;5009373;28;20268;-68
2021/06/11 04:01:29;;;;;;;10.13;5.38;;;17.00;99.20;;;;;;5009673;28;20049;-70
2021/06/11 04:03:55;;;;;;;7.85;4.60;;;17.10;99.30;;;;;;5009260;28;20050;-68
2021/06/11 04:06:26;;;;;;;8.10;5.20;;;17.10;99.20;;;;;;5010220;28;20385;-68
2021/06/11 04:08:59;;;;;;;9.25;5.10;;;17.10;99.20;;;;;;5009395;28;20186;-67
2021/06/11 04:11:31;;;;;;;10.30;4.85;;;17.20;99.10;;;;;;5009098;28;20107;-69
2021/06/11 04:14:04;;;;;;;5.55;4.50;;;17.10;99.20;;;;;;5009501;28;20037;-70
2021/06/11 04:16:44;;;;;;;9.13;4.60;;;17.10;99.30;;;;;;5009498;28;20046;-68
2021/06/11 04:19:16;;;;;;;6.43;4.40;;;17.20;99.30;;;;;;5009357;28;20045;-67
2021/06/11 04:21:46;;;;;;;7.20;4.97;;;17.20;99.30;;;;;;5009220;28;20460;-69
2021/06/11 04:24:13;;;;;;;8.55;4.75;;;17.20;99.40;;;;;;5010609;28;20046;-68
2021/06/11 04:26:43;;;;;;;7.97;4.30;;;17.20;99.30;;;;;;5009249;28;20471;-69
2021/06/11 04:29:16;;;;;;;8.77;4.38;;;17.30;99.30;;;;;;5009226;28;20061;-68
2021/06/11 04:31:43;;;;;;;6.25;4.10;;;17.30;99.20;;;;;;5009283;28;20180;-68
2021/06/11 04:34:15;;;;;;;9.35;4.45;;;17.30;99.60;;;;;;5009048;28;20042;-69
2021/06/11 04:36:43;;;;;;;7.45;4.22;;;17.30;99.40;;;;;;5009100;28;20030;-69
2021/06/11 04:39:09;;;;;;;7.82;4.47;;;17.50;99.40;;;;;;5010838;28;20345;-69
2021/06/11 04:41:36;;;;;;;10.35;4.65;;;17.40;99.30;;;;;;5009022;28;20037;-68
2021/06/11 04:44:04;;;;;;;8.35;4.80;;;17.50;99.40;;;;;;5008995;28;20137;-69
2021/06/11 04:46:30;;;;;;;;;;;17.50;99.30;;;;;;5009501;28;20121;-68
2021/06/11 04:48:55;;;;;;;10.20;4.93;;;17.50;99.30;;;;;;5009231;28;19996;-68
2021/06/11 04:51:24;;;;;;;6.63;4.00;;;17.60;99.30;;;;;;5010504;28;20022;-68
2021/06/11 04:53:50;;;;;;;6.28;4.25;;;17.60;99.30;;;;;;5009569;28;20483;-69
2021/06/11 04:56:16;;;;;;;6.78;4.57;;;17.70;99.20;;;;;;5009031;28;20042;-68
2021/06/11 04:58:42;;;;;;;9.02;5.45;;;17.70;99.10;;;;;;5009227;28;20033;-69
2021/06/11 05:01:09;;;;;;;14.27;4.78;;;17.80;99.10;;;;;;5008914;28;20045;-68
2021/06/11 05:03:35;;;;;;;9.05;4.65;;;17.80;99.20;;;;;;5008985;28;20084;-69
2021/06/11 05:06:03;;;;;;;11.10;4.22;;;18.00;99.20;;;;;;5010051;28;20423;-70
2021/06/11 05:08:28;;;;;;;8.70;4.47;;;18.10;99.00;;;;;;5008655;28;20452;-70
2021/06/11 05:10:55;;;;;;;11.27;4.85;;;18.20;98.90;;;;;;5008896;28;20045;-69
2021/06/11 05:13:21;;;;;;;10.60;4.45;;;18.30;98.90;;;;;;5008618;28;20048;-69
2021/06/11 05:15:46;;;;;;;14.07;5.07;;;18.30;98.70;;;;;;5008631;28;20056;-70
2021/06/11 05:18:12;;;;;;;7.53;4.05;;;18.50;98.70;;;;;;5010477;28;20440;-69
2021/06/11 05:20:39;;;;;;;11.40;4.70;;;18.50;98.60;;;;;;5012669;28;20084;-69
2021/06/11 05:23:05;;;;;;;9.77;4.70;;;18.50;98.70;;;;;;5012730;28;20056;-70
2021/06/11 05:25:31;;;;;;;9.13;4.18;;;18.50;98.30;;;;;;5012268;28;20034;-70
2021/06/11 05:27:57;;;;;;;7.32;4.43;;;18.60;98.10;;;;;;5012038;28;20484;-69
2021/06/11 05:30:25;;;;;;;11.93;4.38;;;18.70;97.70;;;;;;5011955;28;20104;-67
2021/06/11 05:32:51;;;;;;;9.00;4.47;;;18.80;98.00;;;;;;5013393;28;20022;-68
2021/06/11 05:35:17;;;;;;;8.25;4.93;;;18.90;97.40;;;;;;5012356;28;20048;-68
2021/06/11 05:37:43;;;;;;;9.85;5.70;;;19.00;97.30;;;;;;5012192;28;20068;-69
2021/06/11 05:40:09;;;;;;;8.13;4.43;;;19.00;96.80;;;;;;5011977;28;20460;-70
2021/06/11 05:42:34;;;;;;;6.38;5.10;;;19.10;96.80;;;;;;5011823;28;20045;-69
2021/06/11 05:45:00;;;;;;;9.55;4.65;;;19.20;96.60;;;;;;5009775;28;20061;-69
2021/06/11 05:47:26;;;;;;;11.18;4.53;;;19.40;96.40;;;;;;5011856;28;20087;-69
2021/06/11 05:49:52;;;;;;;9.65;4.65;;;19.50;96.00;;;;;;5011884;28;20037;-68
2021/06/11 05:52:18;;;;;;;6.22;4.30;;;19.80;95.90;;;;;;5011678;28;20066;-67
2021/06/11 05:54:43;;;;;;;7.85;4.50;;;19.90;95.30;;;;;;5012295;28;20026;-70
2021/06/11 05:57:09;;;;;;;8.18;4.03;;;20.10;95.30;;;;;;5012792;28;20470;-73
2021/06/11 05:59:35;;;;;;;5.85;4.63;;;20.40;94.80;;;;;;5010556;28;20373;-73
2021/06/11 06:02:00;;;;;;;6.47;4.43;;;20.50;94.30;;;;;;5011076;28;20161;-71
2021/06/11 06:04:26;;;;;;;7.38;4.13;;;20.50;93.90;;;;;;5011519;28;20451;-70
2021/06/11 06:06:51;;;;;;;6.78;4.03;;;20.60;93.80;;;;;;5011928;28;20042;-70
2021/06/11 06:09:17;;;;;;;9.23;4.07;;;20.60;93.90;;;;;;5013525;28;20037;-71
2021/06/11 06:11:42;;;;;;;6.47;4.35;;;20.60;93.80;;;;;;5012251;28;20110;-72
2021/06/11 06:14:11;;;;;;;10.63;4.95;;;20.60;93.60;;;;;;5011337;28;20042;-72
2021/06/11 06:16:37;;;;;;;6.45;4.22;;;20.60;93.70;;;;;;5011796;28;20041;-72
2021/06/11 06:19:03;;;;;;;11.23;5.13;;;20.70;93.70;;;;;;5011478;28;20045;-73
2021/06/11 06:21:33;;;;;;;5.85;4.22;;;20.70;93.60;;;;;;5011357;28;20038;-71
2021/06/11 06:23:59;;;;;;;7.57;4.68;;;20.90;93.30;;;;;;5012001;28;20050;-71
2021/06/11 06:26:26;;;;;;;10.45;4.55;;;21.10;92.70;;;;;;5010373;28;20038;-72
2021/06/11 06:28:52;;;;;;;7.90;4.43;;;21.20;92.60;;;;;;5011428;28;20114;-75
2021/06/11 06:31:18;;;;;;;9.50;3.85;;;21.40;93.00;;;;;;5010643;28;20108;-71
2021/06/11 06:33:43;;;;;;;5.15;3.92;;;21.50;92.50;;;;;;5011100;28;20396;-72
2021/06/11 06:36:10;;;;;;;8.07;3.50;;;21.50;92.10;;;;;;5012763;28;20033;-70
2021/06/11 06:38:36;;;;;;;7.43;3.78;;;21.50;92.00;;;;;;5011441;28;20057;-70
2021/06/11 06:41:03;;;;;;;7.00;4.05;;;21.50;91.80;;;;;;5010875;28;20124;-71
2021/06/11 06:43:32;;;;;;;9.57;4.28;;;21.60;91.20;;;;;;5011145;28;20491;-74
2021/06/11 06:45:58;;;;;;;9.85;4.28;;;21.60;91.00;;;;;;5009489;28;20050;-71
2021/06/11 06:48:24;;;;;;;11.30;4.55;;;21.60;90.80;;;;;;5010961;28;20264;-70
2021/06/11 06:50:50;;;;;;;11.48;7.22;;;21.60;90.50;;;;;;5012358;28;20069;-70
2021/06/11 06:53:18;;;;;;;11.27;5.63;;;21.70;90.60;;;;;;5010745;28;20400;-69
2021/06/11 06:55:44;;;;;;;;;;;21.70;91.10;;;;;;5011234;28;20038;-69
2021/06/11 06:58:10;;;;;;;6.63;4.53;;;21.80;91.10;;;;;;5010625;28;19947;-70
2021/06/11 07:00:35;;;;;;;14.80;7.05;;;21.90;91.00;;;;;;5010243;28;20026;-70
2021/06/11 07:03:01;;;;;;;10.93;4.88;;;21.90;90.30;;;;;;5012212;28;20109;-71
2021/06/11 07:05:27;;;;;;;8.82;4.43;;;22.00;90.00;;;;;;5010402;28;20112;-71
2021/06/11 07:07:53;;;;;;;12.65;4.53;;;22.10;90.00;;;;;;5010776;28;20059;-70
2021/06/11 07:10:18;;;;;;;9.73;4.72;;;22.30;89.50;;;;;;5009472;28;20056;-69
2021/06/11 07:12:44;;;;;;;6.57;3.90;;;22.30;88.90;;;;;;5010006;28;20156;-70
2021/06/11 07:15:10;;;;;;;8.90;4.07;;;22.40;88.90;;;;;;5010604;28;20341;-69
2021/06/11 07:17:37;;;;;;;8.55;3.55;;;22.50;89.40;;;;;;5010579;28;20499;-69
2021/06/11 07:20:04;;;;;;;6.65;3.35;;;22.60;88.80;;;;;;4975442;28;20472;-70
2021/06/11 07:22:30;;;;;;;6.30;3.80;;;22.70;88.20;;;;;;5007642;28;20046;-71
2021/06/11 07:24:55;;;;;;;5.32;3.30;;;22.80;88.10;;;;;;5009261;28;20092;-72
2021/06/11 07:27:21;;;;;;;8.50;4.25;;;22.90;87.50;;;;;;5011440;28;20455;-71
2021/06/11 07:29:49;;;;;;;9.00;3.10;;;23.00;86.30;;;;;;5008553;28;20038;-70
2021/06/11 07:32:16;;;;;;;7.03;3.63;;;23.10;85.40;;;;;;5010270;28;20379;-71
2021/06/11 07:34:43;;;;;;;6.68;3.25;;;23.20;85.40;;;;;;5010160;28;20456;-71
2021/06/11 07:37:09;;;;;;;7.18;3.38;;;23.40;84.90;;;;;;5008237;28;20029;-71
2021/06/11 07:39:35;;;;;;;8.02;3.67;;;23.60;84.80;;;;;;5010014;28;20060;-71
2021/06/11 07:42:01;;;;;;;5.55;3.50;;;23.90;83.90;;;;;;5011708;28;20125;-70
2021/06/11 07:44:27;;;;;;;5.28;2.60;;;24.40;82.80;;;;;;5009298;28;20053;-70
2021/06/11 07:46:53;;;;;;;6.57;2.90;;;25.10;83.50;;;;;;5010055;28;20046;-71
2021/06/11 07:49:18;;;;;;;3.85;2.63;;;25.80;80.40;;;;;;5009820;28;20240;-72
2021/06/11 07:51:44;;;;;;;5.22;2.65;;;26.40;79.00;;;;;;5010235;28;20049;-70
2021/06/11 07:54:10;;;;;;;5.43;2.75;;;27.10;76.60;;;;;;5011666;28;20037;-71
2021/06/11 07:56:37;;;;;;;13.05;2.95;;;27.50;73.10;;;;;;5009828;28;20790;-72
2021/06/11 07:59:03;;;;;;;5.22;2.75;;;27.70;71.70;;;;;;5008983;28;20128;-72
2021/06/11 08:01:32;;;;;;;5.45;2.97;;;28.30;71.60;;;;;;5008576;28;20029;-72
2021/06/11 08:03:57;;;;;;;8.77;3.03;;;28.80;70.20;;;;;;5010055;28;20068;-71
2021/06/11 08:06:23;;;;;;;4.10;3.00;;;29.60;68.50;;;;;;5009720;28;20038;-71
2021/06/11 08:08:48;;;;;;;5.75;3.30;;;30.30;63.70;;;;;;5011196;28;20029;-71
2021/06/11 08:11:14;;;;;;;8.43;3.47;;;30.30;62.60;;;;;;5009621;28;20038;-74
2021/06/11 08:13:40;;;;;;;9.65;3.80;;;30.70;59.80;;;;;;5009361;28;20036;-72
2021/06/11 08:16:06;;;;;;;4.32;2.50;;;31.10;57.30;;;;;;5009861;28;20034;-70
2021/06/11 08:18:32;;;;;;;3.97;2.70;;;31.20;57.20;;;;;;5009818;28;20121;-73
2021/06/11 08:20:58;;;;;;;6.32;3.88;;;31.20;55.30;;;;;;5011405;28;20050;-72
2021/06/11 08:23:23;;;;;;;4.43;3.08;;;30.90;55.10;;;;;;5009521;28;20092;-70
2021/06/11 08:25:49;;;;;;;4.22;3.00;;;31.20;55.40;;;;;;5007796;28;20132;-71
2021/06/11 08:28:15;;;;;;;4.47;3.17;;;31.80;54.40;;;;;;5009274;28;20042;-70
2021/06/11 08:30:41;;;;;;;5.68;3.40;;;31.90;54.50;;;;;;5006628;28;20064;-71
2021/06/11 08:33:07;;;;;;;12.32;3.40;;;32.30;53.60;;;;;;5010684;28;20053;-71
2021/06/11 08:35:33;;;;;;;6.95;4.03;;;32.80;50.80;;;;;;5009682;28;20471;-71
2021/06/11 08:38:00;;;;;;;6.72;4.38;;;32.40;50.70;;;;;;5024729;28;20125;-69
2021/06/11 08:40:26;;;;;;;7.10;3.22;;;32.60;51.50;;;;;;5009843;28;20038;-72
2021/06/11 08:42:52;;;;;;;5.50;3.50;;;33.10;51.50;;;;;;5010050;28;20088;-72
2021/06/11 08:45:19;;;;;;;9.13;3.33;;;34.00;49.70;;;;;;5009474;28;20038;-71
2021/06/11 08:47:51;;;;;;;4.95;3.58;;;34.50;47.60;;;;;;5009581;28;20069;-72
2021/06/11 08:50:27;;;;;;;10.40;3.38;;;34.50;47.20;;;;;;5009099;28;20042;-70
2021/06/11 08:52:54;;;;;;;4.10;2.90;;;34.00;46.40;;;;;;5010036;28;20030;-71
2021/06/11 08:55:20;;;;;;;7.65;4.32;;;33.80;47.40;;;;;;5013466;28;20034;-71
2021/06/11 08:57:46;;;;;;;6.03;3.72;;;32.90;47.60;;;;;;5012845;28;20026;-71
2021/06/11 09:00:14;;;;;;;10.30;6.63;;;32.20;48.80;;;;;;5013237;28;20062;-70
2021/06/11 09:03:11;;;;;;;7.95;5.05;;;32.10;50.00;;;;;;5011554;28;20026;-71
2021/06/11 09:05:42;;;;;;;7.45;4.40;;;32.70;49.00;;;;;;5012877;28;20049;-70
2021/06/11 09:08:18;;;;;;;8.38;5.20;;;32.60;49.40;;;;;;5012934;28;20092;-71
2021/06/11 09:10:46;;;;;;;12.10;4.63;;;32.70;49.30;;;;;;5012558;28;20038;-70
2021/06/11 09:13:22;;;;;;;8.75;4.63;;;33.10;48.60;;;;;;5012446;28;20034;-70
2021/06/11 09:15:48;;;;;;;10.50;4.90;;;32.70;48.80;;;;;;5012847;28;20065;-71
2021/06/11 09:18:22;;;;;;;7.25;5.22;;;32.30;49.50;;;;;;5014044;28;20049;-70
2021/06/11 09:20:49;;;;;;;11.75;5.40;;;31.90;50.30;;;;;;5011715;28;20034;-70
2021/06/11 09:23:17;;;;;;;12.77;5.57;;;31.70;51.00;;;;;;5012528;28;20058;-70
2021/06/11 09:25:45;;;;;;;;;;;31.40;51.40;;;;;;5013262;28;20038;-71
2021/06/11 09:28:15;;;;;;;9.63;5.45;;;30.80;52.10;;;;;;5012364;28;19963;-70
2021/06/11 09:30:40;;;;;;;10.93;4.53;;;30.80;52.10;;;;;;5012149;28;20084;-70
2021/06/11 09:33:11;;;;;;;11.68;5.68;;;31.10;52.50;;;;;;5014175;28;20034;-72
2021/06/11 09:35:38;;;;;;;10.65;4.95;;;30.90;51.30;;;;;;5011924;28;20038;-71
2021/06/11 09:38:21;;;;;;;8.93;4.80;;;30.00;52.30;;;;;;5011944;28;20121;-71
2021/06/11 09:40:58;;;;;;;6.70;4.65;;;30.10;52.80;;;;;;5012150;28;20038;-72
2021/06/11 09:43:25;;;;;;;9.05;5.20;;;30.50;53.00;;;;;;5012200;28;20057;-72
2021/06/11 09:46:12;;;;;;;7.28;5.55;;;30.50;53.00;;;;;;5011840;28;20462;-72
2021/06/11 09:48:45;;;;;;;;;;;30.00;53.20;;;;;;5012320;28;20032;-72
2021/06/11 09:51:17;;;;;;;9.30;5.60;;;29.60;54.10;;;;;;5013523;28;19908;-72
2021/06/11 09:53:43;;;;;;;14.05;7.20;;;29.80;54.50;;;;;;5011788;28;20057;-71
2021/06/11 09:56:28;;;;;;;10.30;5.65;;;29.30;54.60;;;;;;5011458;28;20372;-70
2021/06/11 09:58:59;;;;;;;8.48;4.88;;;29.40;55.60;;;;;;5011884;28;20048;-72
2021/06/11 10:01:28;;;;;;;11.02;4.93;;;29.60;54.50;;;;;;5011577;28;20061;-72
2021/06/11 10:03:56;;;;;;;7.80;5.10;;;29.70;53.90;;;;;;5011382;28;20495;-72
2021/06/11 10:06:22;;;;;;;9.02;4.82;;;29.30;53.90;;;;;;5011358;28;20040;-71
2021/06/11 10:08:50;;;;;;;8.18;5.82;;;29.50;54.30;;;;;;5011846;28;20038;-72
2021/06/11 10:11:22;;;;;;;8.93;5.40;;;29.70;54.10;;;;;;5010948;28;20030;-71
2021/06/11 10:13:49;;;;;;;9.35;4.75;;;29.60;54.10;;;;;;5011667;28;20029;-71
2021/06/11 10:16:18;;;;;;;12.25;5.10;;;29.60;54.60;;;;;;5011213;28;20042;-71
2021/06/11 10:18:44;;;;;;;15.23;10.63;;;29.70;54.40;;;;;;5011533;28;20037;-73
2021/06/11 10:21:13;;;;;;;6.97;5.28;;;29.80;54.50;;;;;;5013049;28;20468;-72
2021/06/11 10:23:42;;;;;;;11.07;4.45;;;29.90;53.30;;;;;;5010589;28;20036;-75
2021/06/11 10:26:09;;;;;;;6.07;4.40;;;29.70;52.10;;;;;;5011070;28;20038;-70
2021/06/11 10:28:39;;;;;;;8.73;4.43;;;29.90;51.90;;;;;;5011064;28;20033;-70
2021/06/11 10:31:13;;;;;;;10.50;4.55;;;29.90;51.70;;;;;;5010877;28;20033;-71
2021/06/11 10:33:49;;;;;;;11.02;5.18;;;29.70;52.20;;;;;;5009955;28;20046;-71
2021/06/11 10:36:30;;;;;;;7.38;4.63;;;29.30;52.00;;;;;;5012688;28;20042;-69
2021/06/11 10:39:00;;;;;;;12.82;5.93;;;29.60;52.90;;;;;;5026483;28;20046;-69
2021/06/11 10:41:28;;;;;;;8.88;5.35;;;29.60;51.80;;;;;;5010938;28;20042;-70
2021/06/11 10:43:54;;;;;;;;;;;29.40;52.30;;;;;;5010226;28;20041;-70
2021/06/11 10:46:30;;;;;;;6.70;4.30;;;29.50;52.60;;;;;;5010505;28;19975;-69
2021/06/11 10:48:55;;;;;;;9.48;4.78;;;29.60;52.90;;;;;;5010871;28;20120;-68
2021/06/11 10:51:44;;;;;;;9.65;4.38;;;29.50;53.10;;;;;;5012110;28;20110;-71
2021/06/11 10:54:16;;;;;;;8.70;5.07;;;29.60;53.60;;;;;;5011283;28;20053;-71
2021/06/11 10:57:00;;;;;;;6.88;4.47;;;29.70;53.90;;;;;;5010605;28;20114;-72
2021/06/11 10:59:39;;;;;;;9.43;4.63;;;29.60;53.60;;;;;;5010558;28;20044;-71
2021/06/11 11:02:06;;;;;;;10.75;5.25;;;29.50;53.60;;;;;;5010707;28;20065;-68
2021/06/11 11:04:36;;;;;;;7.85;4.70;;;29.50;52.90;;;;;;5010500;28;20041;-68
2021/06/11 11:07:29;;;;;;;5.22;3.85;;;29.20;53.60;;;;;;5009564;28;20034;-68
2021/06/11 11:10:04;;;;;;;6.93;3.85;;;29.30;54.20;;;;;;5010524;28;20620;-70
2021/06/11 11:12:49;;;;;;;7.25;3.15;;;29.40;54.30;;;;;;5010400;28;20083;-68
2021/06/11 11:15:50;;;;;;;9.77;3.83;;;29.30;53.80;;;;;;5011457;28;20229;-68
2021/06/11 11:18:20;;;;;;;9.80;4.57;;;29.10;53.80;;;;;;5010281;28;20034;-68
2021/06/11 11:20:46;;;;;;;6.45;3.88;;;29.30;54.30;;;;;;5010664;28;20153;-68
2021/06/11 11:23:30;;;;;;;6.95;4.03;;;29.50;54.40;;;;;;5009362;28;20121;-69
2021/06/11 11:25:56;;;;;;;7.68;4.88;;;29.30;54.30;;;;;;5009395;28;20096;-70
2021/06/11 11:28:22;;;;;;;6.13;3.63;;;29.40;54.70;;;;;;5010497;28;20034;-68
2021/06/11 11:30:48;;;;;;;7.55;5.20;;;29.30;54.90;;;;;;5009986;28;20029;-70
2021/06/11 11:33:15;;;;;;;9.20;4.47;;;29.30;54.90;;;;;;5012141;28;20049;-69
2021/06/11 11:35:44;;;;;;;5.47;3.47;;;29.30;55.10;;;;;;5010116;28;20150;-70
2021/06/11 11:38:12;;;;;;;9.65;3.70;;;29.10;55.20;;;;;;5009811;28;20033;-69
2021/06/11 11:40:41;;;;;;;5.03;3.47;;;29.30;55.10;;;;;;5010001;28;20124;-69
2021/06/11 11:43:08;;;;;;;4.97;3.08;;;29.20;54.80;;;;;;5009797;28;20042;-68
2021/06/11 11:45:34;;;;;;;6.13;3.33;;;29.10;55.00;;;;;;5009867;28;20050;-67
2021/06/11 11:48:03;;;;;;;8.07;4.43;;;28.90;55.60;;;;;;5011580;28;20156;-68
2021/06/11 11:50:33;;;;;;;7.13;3.90;;;28.90;55.70;;;;;;4992304;28;20026;-68
2021/06/11 11:52:58;;;;;;;8.95;4.00;;;28.90;56.10;;;;;;5003406;28;20064;-68
2021/06/11 11:55:24;;;;;;;6.32;2.88;;;28.80;56.30;;;;;;5009923;28;20073;-69
2021/06/11 11:57:50;;;;;;;5.45;3.05;;;28.90;56.60;;;;;;5009968;28;20623;-69
2021/06/11 12:00:17;;;;;;;10.10;2.85;;;29.10;56.90;;;;;;5010973;28;20022;-69
2021/06/11 12:02:43;;;;;;;5.13;3.20;;;29.00;56.60;;;;;;5009945;28;20034;-69
2021/06/11 12:05:10;;;;;;;4.63;3.20;;;29.10;56.80;;;;;;5009707;28;20057;-68
2021/06/11 12:07:36;;;;;;;6.65;3.65;;;29.20;56.90;;;;;;5009622;28;20046;-69
2021/06/11 12:10:02;;;;;;;6.07;3.67;;;29.10;56.70;;;;;;5009803;28;20052;-69
2021/06/11 12:12:28;;;;;;;8.80;4.00;;;29.00;57.10;;;;;;5024987;28;20463;-69
2021/06/11 12:14:54;;;;;;;7.32;3.75;;;29.00;57.00;;;;;;5010912;28;20101;-69
2021/06/11 12:17:20;;;;;;;10.05;3.92;;;28.90;57.30;;;;;;5009641;28;20121;-69
2021/06/11 12:19:46;;;;;;;6.22;3.25;;;28.80;57.90;;;;;;5009829;28;20037;-70
2021/06/11 12:22:13;;;;;;;9.70;3.63;;;28.70;57.50;;;;;;5009861;28;20049;-69
2021/06/11 12:24:39;;;;;;;4.82;3.83;;;28.70;57.90;;;;;;5009671;28;20022;-69
2021/06/11 12:27:05;;;;;;;3.58;2.70;;;28.80;58.00;;;;;;5011193;28;20487;-68
2021/06/11 12:29:31;;;;;;;5.00;2.90;;;28.90;57.90;;;;;;5012618;28;20038;-68
2021/06/11 12:31:57;;;;;;;3.78;2.90;;;28.90;57.30;;;;;;5012959;28;20080;-70
2021/06/11 12:34:22;;;;;;;6.95;2.70;;;28.80;57.60;;;;;;5013535;28;20038;-71
2021/06/11 12:36:48;;;;;;;4.50;3.15;;;28.80;57.90;;;;;;5013516;28;20040;-70
2021/06/11 12:39:15;;;;;;;4.15;2.40;;;28.20;58.30;;;;;;5014577;28;20026;-70
2021/06/11 12:41:41;;;;;;;5.53;2.60;;;28.50;58.90;;;;;;5012866;28;20147;-69
2021/06/11 12:46:44;;;;;;;4.53;2.70;;;28.40;58.00;;;;;;5013162;28;20081;-70
2021/06/11 12:49:09;;;;;;;6.95;2.10;;;28.60;58.20;;;;;;5012901;28;20385;-69
2021/06/11 12:51:35;;;;;;;7.30;2.53;;;28.60;58.00;;;;;;5012912;28;20022;-70
2021/06/11 12:54:01;;;;;;;5.88;3.38;;;28.60;58.10;;;;;;5013270;28;20595;-71